createdAt,value
2023-04-22T00:00:14.155Z,4.82
2023-04-22T00:02:43.667Z,5.75
2023-04-22T00:05:15.064Z,5.75
2023-04-22T00:07:47.046Z,5.30
2023-04-22T00:10:15.875Z,5.45
2023-04-22T00:12:44.456Z,5.00
2023-04-22T00:15:13.276Z,4.50
2023-04-22T00:17:42.827Z,4.70
2023-04-22T00:20:12.570Z,4.57
2023-04-22T00:22:41.135Z,5.53
2023-04-22T00:25:11.588Z,5.10
2023-04-22T00:27:40.515Z,5.47
2023-04-22T00:30:10.897Z,5.55
2023-04-22T00:32:39.671Z,5.10
2023-04-22T00:35:09.578Z,4.78
2023-04-22T00:37:38.602Z,4.70
2023-04-22T00:40:08.582Z,4.63
2023-04-22T00:42:38.853Z,3.90
2023-04-22T00:45:13.312Z,4.28
2023-04-22T00:47:42.868Z,4.00
2023-04-22T00:50:11.893Z,4.13
2023-04-22T00:52:40.524Z,4.07
2023-04-22T00:55:09.740Z,4.18
2023-04-22T00:57:41.462Z,4.20
2023-04-22T01:00:10.881Z,4.05
2023-04-22T01:02:40.539Z,4.40
2023-04-22T01:05:10.146Z,4.20
2023-04-22T01:07:38.984Z,4.10
2023-04-22T01:10:08.800Z,4.00
2023-04-22T01:12:38.701Z,3.95
2023-04-22T01:15:08.871Z,4.05
2023-04-22T01:17:37.580Z,4.00
2023-04-22T01:20:10.371Z,3.63
2023-04-22T01:22:45.539Z,3.63
2023-04-22T01:25:15.534Z,4.00
2023-04-22T01:27:44.573Z,3.60
2023-04-22T01:30:13.742Z,3.72
2023-04-22T01:32:43.015Z,3.75
2023-04-22T01:35:12.056Z,3.78
2023-04-22T01:37:41.240Z,3.60
2023-04-22T01:40:11.664Z,3.35
2023-04-22T01:42:41.541Z,3.38
2023-04-22T01:45:13.133Z,3.92
2023-04-22T01:47:41.769Z,3.92
2023-04-22T01:50:13.980Z,4.35
2023-04-22T01:52:49.072Z,4.40
2023-04-22T01:55:17.859Z,4.22
2023-04-22T01:57:47.896Z,3.78
2023-04-22T02:00:17.000Z,3.83
2023-04-22T02:02:49.225Z,4.05
2023-04-22T02:05:19.631Z,3.90
2023-04-22T02:07:48.566Z,3.80
2023-04-22T02:10:18.804Z,3.65
2023-04-22T02:12:49.158Z,3.53
2023-04-22T02:15:18.190Z,4.30
2023-04-22T02:17:47.198Z,4.15
2023-04-22T02:20:16.399Z,3.72
2023-04-22T02:22:47.027Z,3.97
2023-04-22T02:25:16.784Z,4.18
2023-04-22T02:27:45.659Z,3.85
2023-04-22T02:30:16.244Z,3.95
2023-04-22T02:32:46.478Z,3.58
2023-04-22T02:35:15.919Z,3.72
2023-04-22T02:37:45.018Z,3.70
2023-04-22T02:40:14.045Z,3.67
2023-04-22T02:42:43.121Z,3.97
2023-04-22T02:45:12.632Z,3.75
2023-04-22T02:47:43.260Z,3.97
2023-04-22T02:50:12.416Z,3.90
2023-04-22T02:52:41.530Z,4.43
2023-04-22T02:55:11.427Z,3.90
2023-04-22T02:57:39.978Z,4.28
2023-04-22T03:00:10.311Z,3.80
2023-04-22T03:02:39.586Z,3.65
2023-04-22T03:05:21.056Z,4.10
2023-04-22T03:07:49.834Z,3.72
2023-04-22T03:10:18.993Z,4.20
2023-04-22T03:12:48.231Z,3.97
2023-04-22T03:15:20.536Z,3.33
2023-04-22T03:17:50.346Z,3.88
2023-04-22T03:20:22.728Z,3.63
2023-04-22T03:22:51.447Z,4.32
2023-04-22T03:25:20.528Z,4.03
2023-04-22T03:27:54.215Z,3.60
2023-04-22T03:30:23.078Z,3.95
2023-04-22T03:32:53.574Z,4.30
2023-04-22T03:35:27.876Z,4.00
2023-04-22T03:37:59.513Z,3.90
2023-04-22T03:40:33.257Z,3.85
2023-04-22T03:43:05.314Z,3.60
2023-04-22T03:45:34.488Z,3.67
2023-04-22T03:48:35.563Z,4.85
2023-04-22T03:51:09.660Z,3.17
2023-04-22T03:53:40.139Z,3.00
2023-04-22T03:56:09.795Z,3.53
2023-04-22T03:58:42.389Z,3.13
2023-04-22T04:01:12.195Z,3.22
2023-04-22T04:03:42.685Z,2.90
2023-04-22T04:06:14.071Z,2.67
2023-04-22T04:08:42.914Z,2.75
2023-04-22T04:11:11.854Z,2.60
2023-04-22T04:13:40.665Z,2.92
2023-04-22T04:16:18.480Z,2.85
2023-04-22T04:18:51.803Z,2.88
2023-04-22T04:21:24.124Z,2.63
2023-04-22T04:23:54.392Z,2.70
2023-04-22T04:26:28.752Z,2.88
2023-04-22T04:29:06.694Z,2.58
2023-04-22T04:31:35.719Z,2.70
2023-04-22T04:34:05.507Z,2.50
2023-04-22T04:36:35.670Z,2.50
2023-04-22T04:39:19.310Z,2.65
2023-04-22T04:41:49.135Z,2.50
2023-04-22T04:44:18.612Z,2.67
2023-04-22T04:46:48.495Z,2.50
2023-04-22T04:49:17.121Z,2.45
2023-04-22T04:52:01.852Z,2.65
2023-04-22T04:54:30.664Z,2.60
2023-04-22T04:57:03.241Z,2.40
2023-04-22T04:59:32.669Z,2.53
2023-04-22T05:02:01.422Z,2.50
2023-04-22T05:04:31.677Z,2.47
2023-04-22T05:07:01.899Z,2.45
2023-04-22T05:09:37.230Z,2.28
2023-04-22T05:12:06.509Z,2.58
2023-04-22T05:14:35.900Z,2.40
2023-04-22T05:17:04.709Z,2.80
2023-04-22T05:19:33.279Z,2.60
2023-04-22T05:22:04.559Z,2.55
2023-04-22T05:24:33.248Z,2.63
2023-04-22T05:27:02.038Z,2.70
2023-04-22T05:29:31.724Z,2.45
2023-04-22T05:32:02.262Z,2.28
2023-04-22T05:34:31.921Z,2.00
2023-04-22T05:37:00.890Z,2.28
2023-04-22T05:39:31.151Z,2.65
2023-04-22T05:42:01.899Z,2.30
2023-04-22T05:44:30.642Z,2.50
2023-04-22T05:46:59.618Z,2.70
2023-04-22T05:49:29.139Z,2.33
2023-04-22T05:52:18.891Z,2.50
2023-04-22T05:55:09.229Z,2.15
2023-04-22T05:57:37.978Z,2.15
2023-04-22T06:00:12.006Z,2.10
2023-04-22T06:02:45.785Z,2.20
2023-04-22T06:05:14.725Z,2.40
2023-04-22T06:07:43.374Z,1.92
2023-04-22T06:10:13.535Z,2.22
2023-04-22T06:12:42.160Z,2.10
2023-04-22T06:15:12.236Z,2.20
2023-04-22T06:17:40.971Z,2.10
2023-04-22T06:20:10.249Z,2.33
2023-04-22T06:22:39.155Z,2.10
2023-04-22T06:25:08.290Z,2.33
2023-04-22T06:27:38.323Z,2.10
2023-04-22T06:30:09.512Z,2.13
2023-04-22T06:32:39.592Z,2.42
2023-04-22T06:35:09.458Z,2.60
2023-04-22T06:37:38.150Z,1.98
2023-04-22T06:40:10.541Z,2.13
2023-04-22T06:43:02.750Z,2.10
2023-04-22T06:46:03.502Z,1.88
2023-04-22T06:48:49.937Z,2.50
2023-04-22T06:51:47.815Z,2.20
2023-04-22T06:54:16.562Z,2.05
2023-04-22T06:56:45.202Z,2.30
2023-04-22T06:59:15.203Z,2.10
2023-04-22T07:01:43.935Z,2.50
2023-04-22T07:04:12.932Z,2.28
2023-04-22T07:06:41.561Z,2.40
2023-04-22T07:09:10.228Z,2.00
2023-04-22T07:11:39.887Z,2.05
2023-04-22T07:14:15.776Z,1.90
2023-04-22T07:16:44.323Z,2.17
2023-04-22T07:19:13.071Z,1.98
2023-04-22T07:21:41.687Z,2.08
2023-04-22T07:24:12.119Z,2.33
2023-04-22T07:26:42.043Z,2.05
2023-04-22T07:29:11.348Z,1.80
2023-04-22T07:31:41.425Z,2.25
2023-04-22T07:34:10.637Z,2.15
2023-04-22T07:36:39.445Z,2.03
2023-04-22T07:39:08.200Z,1.88
2023-04-22T07:41:36.977Z,2.20
2023-04-22T07:44:05.535Z,2.20
2023-04-22T07:46:34.222Z,1.95
2023-04-22T07:49:04.080Z,2.05
2023-04-22T07:51:32.666Z,2.20
2023-04-22T07:54:01.291Z,1.80
2023-04-22T07:56:30.126Z,2.08
2023-04-22T07:58:58.705Z,2.20
2023-04-22T08:01:27.353Z,2.17
2023-04-22T08:03:56.299Z,2.10
2023-04-22T08:06:28.163Z,1.70
2023-04-22T08:08:56.879Z,2.28
2023-04-22T08:11:25.654Z,1.90
2023-04-22T08:13:54.367Z,2.10
2023-04-22T08:16:23.201Z,1.85
2023-04-22T08:18:52.170Z,1.80
2023-04-22T08:21:21.026Z,1.98
2023-04-22T08:23:52.099Z,2.25
2023-04-22T08:26:20.771Z,2.05
2023-04-22T08:28:49.626Z,2.20
2023-04-22T08:31:18.187Z,1.80
2023-04-22T08:33:46.839Z,1.80
2023-04-22T08:36:16.123Z,1.73
2023-04-22T08:38:44.728Z,1.90
2023-04-22T08:41:15.336Z,1.77
2023-04-22T08:43:45.341Z,1.60
2023-04-22T08:46:15.535Z,1.88
2023-04-22T08:48:44.292Z,1.70
2023-04-22T08:51:12.970Z,1.98
2023-04-22T08:53:41.537Z,1.90
2023-04-22T08:56:10.501Z,1.77
2023-04-22T08:58:41.646Z,1.83
2023-04-22T09:01:10.442Z,1.80
2023-04-22T09:03:41.423Z,1.83
2023-04-22T09:06:12.294Z,1.80
2023-04-22T09:08:41.134Z,1.90
2023-04-22T09:11:09.880Z,1.95
2023-04-22T09:13:41.282Z,1.83
2023-04-22T09:16:10.669Z,1.90
2023-04-22T09:18:43.205Z,1.92
2023-04-22T09:21:11.946Z,1.90
2023-04-22T09:23:51.094Z,1.95
2023-04-22T09:26:20.967Z,1.90
2023-04-22T09:28:52.334Z,1.88
2023-04-22T09:31:22.002Z,1.95
2023-04-22T09:33:53.907Z,1.73
2023-04-22T09:36:27.651Z,1.90
2023-04-22T09:38:59.524Z,2.15
2023-04-22T09:41:29.328Z,1.67
2023-04-22T09:44:01.213Z,1.70
2023-04-22T09:46:32.058Z,1.77
2023-04-22T09:49:01.211Z,1.90
2023-04-22T09:51:31.940Z,2.00
2023-04-22T09:54:04.465Z,1.73
2023-04-22T09:56:48.411Z,1.88
2023-04-22T09:59:22.036Z,1.70
2023-04-22T10:01:52.559Z,1.98
2023-04-22T10:04:23.304Z,2.10
2023-04-22T10:06:52.499Z,1.73
2023-04-22T10:09:22.305Z,1.70
2023-04-22T10:11:52.371Z,1.67
2023-04-22T10:14:23.166Z,1.80
2023-04-22T10:16:57.540Z,1.80
2023-04-22T10:19:27.945Z,2.13
2023-04-22T10:21:58.868Z,1.80
2023-04-22T10:24:29.601Z,2.58
2023-04-22T10:26:59.755Z,1.95
2023-04-22T10:29:38.700Z,1.80
2023-04-22T10:32:25.451Z,1.92
2023-04-22T10:35:09.589Z,1.90
2023-04-22T10:37:39.949Z,2.13
2023-04-22T10:40:11.006Z,1.50
2023-04-22T10:42:41.320Z,1.75
2023-04-22T10:45:15.474Z,1.85
2023-04-22T10:47:44.869Z,1.80
2023-04-22T10:50:16.105Z,1.98
2023-04-22T10:52:47.488Z,2.15
2023-04-22T10:55:16.258Z,2.03
2023-04-22T10:57:46.067Z,1.73
2023-04-22T11:00:52.280Z,2.00
2023-04-22T11:03:28.279Z,1.80
2023-04-22T11:06:18.851Z,2.13
2023-04-22T11:08:48.439Z,1.98
2023-04-22T11:11:19.080Z,1.77
2023-04-22T11:13:50.482Z,1.90
2023-04-22T11:16:23.140Z,2.15
2023-04-22T11:18:51.874Z,2.00
2023-04-22T11:21:22.376Z,2.30
2023-04-22T11:23:51.938Z,1.90
2023-04-22T11:26:33.624Z,1.80
2023-04-22T11:29:02.236Z,1.98
2023-04-22T11:31:32.306Z,3.45
2023-04-22T11:34:01.050Z,1.73
2023-04-22T11:36:29.665Z,2.08
2023-04-22T11:38:58.587Z,1.90
2023-04-22T11:41:29.901Z,3.33
2023-04-22T11:43:58.602Z,2.45
2023-04-22T11:46:38.261Z,1.83
2023-04-22T11:49:14.724Z,1.85
2023-04-22T11:51:56.186Z,1.80
2023-04-22T11:54:32.544Z,1.98
2023-04-22T11:57:03.549Z,2.38
2023-04-22T11:59:32.216Z,2.13
2023-04-22T12:02:05.638Z,2.17
2023-04-22T12:04:37.548Z,3.88
2023-04-22T12:07:06.182Z,2.10
2023-04-22T12:09:34.793Z,2.00
2023-04-22T12:12:05.022Z,2.28
2023-04-22T12:14:34.423Z,2.10
2023-04-22T12:17:07.524Z,2.17
2023-04-22T12:19:36.343Z,2.20
2023-04-22T12:22:05.095Z,2.10
2023-04-22T12:24:33.812Z,2.33
2023-04-22T12:27:03.481Z,2.00
2023-04-22T12:29:33.453Z,2.92
2023-04-22T12:32:02.214Z,2.40
2023-04-22T12:34:32.228Z,2.17
2023-04-22T12:37:01.058Z,2.10
2023-04-22T12:39:29.628Z,1.80
2023-04-22T12:41:58.579Z,1.98
2023-04-22T12:44:27.208Z,1.90
2023-04-22T12:46:55.879Z,2.20
2023-04-22T12:49:24.568Z,1.70
2023-04-22T12:51:55.064Z,1.67
2023-04-22T12:54:23.784Z,1.95
2023-04-22T12:56:52.628Z,1.80
2023-04-22T12:59:21.520Z,1.90
2023-04-22T13:01:50.318Z,1.70
2023-04-22T13:04:20.308Z,1.88
2023-04-22T13:06:50.560Z,1.77
2023-04-22T13:09:20.570Z,2.17
2023-04-22T13:11:49.998Z,2.08
2023-04-22T13:14:19.319Z,2.15
2023-04-22T13:16:47.956Z,1.98
2023-04-22T13:19:16.568Z,2.45
2023-04-22T13:21:45.404Z,1.90
2023-04-22T13:24:14.030Z,1.88
2023-04-22T13:26:43.982Z,1.70
2023-04-22T13:29:14.178Z,2.10
2023-04-22T13:31:44.425Z,1.98
2023-04-22T13:34:13.289Z,1.75
2023-04-22T13:36:42.009Z,1.90
2023-04-22T13:39:10.636Z,2.00
2023-04-22T13:41:39.148Z,1.90
2023-04-22T13:44:09.121Z,1.98
2023-04-22T13:46:37.726Z,2.10
2023-04-22T13:49:06.689Z,2.00
2023-04-22T13:51:37.250Z,1.70
2023-04-22T13:54:06.439Z,2.10
2023-04-22T13:56:35.393Z,1.98
2023-04-22T13:59:04.156Z,1.65
2023-04-22T14:01:34.459Z,1.73
2023-04-22T14:04:03.154Z,1.60
2023-04-22T14:06:31.907Z,1.70
2023-04-22T14:09:01.084Z,1.83
2023-04-22T14:11:29.739Z,1.60
2023-04-22T14:13:58.390Z,1.80
2023-04-22T14:16:26.985Z,1.40
2023-04-22T14:18:58.333Z,1.45
2023-04-22T14:21:28.086Z,1.42
2023-04-22T14:23:57.822Z,1.45
2023-04-22T14:26:26.563Z,1.85
2023-04-22T14:28:55.144Z,2.20
2023-04-22T14:31:24.613Z,2.17
2023-04-22T14:33:53.436Z,1.70
2023-04-22T14:36:23.395Z,1.42
2023-04-22T14:38:52.018Z,1.45
2023-04-22T14:41:21.707Z,0.93
2023-04-22T14:43:51.584Z,1.23
2023-04-22T14:46:20.320Z,1.02
2023-04-22T14:48:48.951Z,1.00
2023-04-22T14:51:17.695Z,1.10
2023-04-22T14:53:47.769Z,1.17
2023-04-22T14:56:16.651Z,1.13
2023-04-22T14:58:45.248Z,1.00
2023-04-22T15:01:14.064Z,1.30
2023-04-22T15:03:43.211Z,1.10
2023-04-22T15:06:12.015Z,1.45
2023-04-22T15:08:40.978Z,1.60
2023-04-22T15:11:10.879Z,1.45
2023-04-22T15:13:39.430Z,1.40
2023-04-22T15:16:08.127Z,1.30
2023-04-22T15:18:36.896Z,1.50
2023-04-22T15:21:10.129Z,1.55
2023-04-22T15:23:38.718Z,1.67
2023-04-22T15:26:07.811Z,1.30
2023-04-22T15:28:37.791Z,1.52
2023-04-22T15:31:06.640Z,1.40
2023-04-22T15:33:35.278Z,1.50
2023-04-22T15:36:06.822Z,1.50
2023-04-22T15:38:35.447Z,1.50
2023-04-22T15:41:04.163Z,1.42
2023-04-22T15:43:33.087Z,1.45
2023-04-22T15:46:03.125Z,1.70
2023-04-22T15:48:33.223Z,1.35
2023-04-22T15:51:01.805Z,1.80
2023-04-22T15:53:30.443Z,1.65
2023-04-22T15:55:59.055Z,1.35
2023-04-22T15:58:29.046Z,1.80
2023-04-22T16:01:11.562Z,1.40
2023-04-22T16:03:49.084Z,1.58
2023-04-22T16:06:18.432Z,1.52
2023-04-22T16:08:47.324Z,1.45
2023-04-22T16:11:16.570Z,1.30
2023-04-22T16:13:46.010Z,1.30
2023-04-22T16:16:14.594Z,1.38
2023-04-22T16:18:44.374Z,1.20
2023-04-22T16:21:14.510Z,1.60
2023-04-22T16:23:43.404Z,1.42
2023-04-22T16:26:12.287Z,1.50
2023-04-22T16:28:40.898Z,1.30
2023-04-22T16:31:11.276Z,1.33
2023-04-22T16:33:39.939Z,1.45
2023-04-22T16:36:10.272Z,1.45
2023-04-22T16:38:40.202Z,1.60
2023-04-22T16:41:11.411Z,1.80
2023-04-22T16:43:41.236Z,1.85
2023-04-22T16:46:10.173Z,1.60
2023-04-22T16:48:39.071Z,2.05
2023-04-22T16:51:07.744Z,2.22
2023-04-22T16:53:37.115Z,2.05
2023-04-22T16:56:07.380Z,1.80
2023-04-22T16:58:36.011Z,1.75
2023-04-22T17:01:04.828Z,1.90
2023-04-22T17:03:33.580Z,1.60
2023-04-22T17:06:02.321Z,1.55
2023-04-22T17:08:30.955Z,1.70
2023-04-22T17:10:59.642Z,1.80
2023-04-22T17:13:29.528Z,2.10
2023-04-22T17:15:58.176Z,1.67
2023-04-22T17:18:26.773Z,1.80
2023-04-22T17:20:55.870Z,1.85
2023-04-22T17:23:24.383Z,1.50
2023-04-22T17:25:52.976Z,1.70
2023-04-22T17:28:21.648Z,1.67
2023-04-22T17:30:51.566Z,1.50
2023-04-22T17:33:20.244Z,1.83
2023-04-22T17:35:48.812Z,1.52
2023-04-22T17:38:17.416Z,1.40
2023-04-22T17:40:46.083Z,1.50
2023-04-22T17:43:14.837Z,1.60
2023-04-22T17:45:44.107Z,1.70
2023-04-22T17:48:14.142Z,1.70
2023-04-22T17:50:42.757Z,1.50
2023-04-22T17:53:11.379Z,1.52
2023-04-22T17:55:39.988Z,1.50
2023-04-22T17:58:08.569Z,1.70
2023-04-22T18:00:38.559Z,1.33
2023-04-22T18:03:07.886Z,1.65
2023-04-22T18:05:43.029Z,1.63
2023-04-22T18:08:12.009Z,1.60
2023-04-22T18:10:40.565Z,1.40
2023-04-22T18:13:09.193Z,1.35
2023-04-22T18:15:37.747Z,1.48
2023-04-22T18:18:06.395Z,1.35
2023-04-22T18:20:35.167Z,1.50
2023-04-22T18:23:05.116Z,1.70
2023-04-22T18:25:33.733Z,1.45
2023-04-22T18:28:02.250Z,1.35
2023-04-22T18:30:32.923Z,1.42
2023-04-22T18:33:01.717Z,1.50
2023-04-22T18:35:30.491Z,1.48
2023-04-22T18:37:59.155Z,1.38
2023-04-22T18:40:29.140Z,1.38
2023-04-22T18:42:58.125Z,1.60
2023-04-22T18:45:26.696Z,1.48
2023-04-22T18:47:55.353Z,1.60
2023-04-22T18:50:24.097Z,1.73
2023-04-22T18:52:52.647Z,1.52
2023-04-22T18:55:21.299Z,1.40
2023-04-22T18:57:51.551Z,1.40
2023-04-22T19:00:20.138Z,1.35
2023-04-22T19:02:49.117Z,1.30
2023-04-22T19:05:18.076Z,1.42
2023-04-22T19:07:46.676Z,1.48
2023-04-22T19:10:15.385Z,1.63
2023-04-22T19:12:43.993Z,1.50
2023-04-22T19:15:14.463Z,1.80
2023-04-22T19:17:43.440Z,1.65
2023-04-22T19:20:12.661Z,2.15
2023-04-22T19:22:41.239Z,1.77
2023-04-22T19:25:10.930Z,1.50
2023-04-22T19:27:39.583Z,1.80
2023-04-22T19:30:09.118Z,1.60
2023-04-22T19:32:39.303Z,1.83
2023-04-22T19:35:08.990Z,2.13
2023-04-22T19:37:37.572Z,2.10
2023-04-22T19:40:06.985Z,2.50
2023-04-22T19:42:36.265Z,2.60
2023-04-22T19:45:05.215Z,2.42
2023-04-22T19:47:34.274Z,2.10
2023-04-22T19:50:05.071Z,2.20
2023-04-22T19:52:34.756Z,2.47
2023-04-22T19:55:08.788Z,1.88
2023-04-22T19:57:38.561Z,2.10
2023-04-22T20:00:08.820Z,2.42
2023-04-22T20:02:43.880Z,2.90
2023-04-22T20:05:15.003Z,2.65
2023-04-22T20:07:44.933Z,3.05
2023-04-22T20:10:14.630Z,3.10
2023-04-22T20:12:44.843Z,2.72
2023-04-22T20:15:14.099Z,3.20
2023-04-22T20:17:43.574Z,2.83
2023-04-22T20:20:15.440Z,3.17
2023-04-22T20:22:45.335Z,2.97
2023-04-22T20:25:17.066Z,3.17
2023-04-22T20:27:46.055Z,2.92
2023-04-22T20:30:15.040Z,2.80
2023-04-22T20:32:43.963Z,2.70
2023-04-22T20:35:16.524Z,2.70
2023-04-22T20:37:47.137Z,2.88
2023-04-22T20:40:16.651Z,2.40
2023-04-22T20:42:45.385Z,2.70
2023-04-22T20:45:15.753Z,2.50
2023-04-22T20:47:44.519Z,2.60
2023-04-22T20:50:14.906Z,2.85
2023-04-22T20:52:43.493Z,2.67
2023-04-22T20:55:12.001Z,2.80
2023-04-22T20:57:41.177Z,3.35
2023-04-22T21:00:11.329Z,3.30
2023-04-22T21:02:41.048Z,2.78
2023-04-22T21:05:11.854Z,2.55
2023-04-22T21:07:44.326Z,2.95
2023-04-22T21:10:14.060Z,3.03
2023-04-22T21:12:43.282Z,3.53
2023-04-22T21:15:13.042Z,3.80
2023-04-22T21:17:44.582Z,3.50
2023-04-22T21:20:13.579Z,3.80
2023-04-22T21:22:44.477Z,4.00
2023-04-22T21:25:21.309Z,3.85
2023-04-22T21:27:50.326Z,4.30
2023-04-22T21:30:19.775Z,4.30
2023-04-22T21:32:48.508Z,4.00
2023-04-22T21:35:17.213Z,3.78
2023-04-22T21:37:47.226Z,4.20
2023-04-22T21:40:15.830Z,5.70
2023-04-22T21:42:45.475Z,6.10
2023-04-22T21:45:14.252Z,6.43
2023-04-22T21:47:42.819Z,6.75
2023-04-22T21:50:12.025Z,8.23
2023-04-22T21:52:40.836Z,10.48
2023-04-22T21:55:11.602Z,12.38
2023-04-22T21:57:40.648Z,12.82
2023-04-22T22:00:15.324Z,13.05
2023-04-22T22:02:44.044Z,13.63
2023-04-22T22:05:12.988Z,13.85
2023-04-22T22:07:41.689Z,14.13
2023-04-22T22:10:14.850Z,14.23
2023-04-22T22:12:43.740Z,13.85
2023-04-22T22:15:12.950Z,14.27
2023-04-22T22:17:41.491Z,13.80
2023-04-22T22:20:12.065Z,14.93
2023-04-22T22:22:41.526Z,14.98
2023-04-22T22:25:13.168Z,14.35
2023-04-22T22:27:45.533Z,14.63
2023-04-22T22:30:14.587Z,14.13
2023-04-22T22:32:43.265Z,14.43
2023-04-22T22:35:12.019Z,14.82
2023-04-22T22:37:40.999Z,14.35
2023-04-22T22:40:12.190Z,14.98
2023-04-22T22:42:40.790Z,14.70
2023-04-22T22:45:10.522Z,14.98
2023-04-22T22:47:39.210Z,14.45
2023-04-22T22:50:09.251Z,13.93
2023-04-22T22:52:37.918Z,14.70
2023-04-22T22:55:07.354Z,14.90
2023-04-22T22:57:37.407Z,14.75
2023-04-22T23:00:09.232Z,13.52
2023-04-22T23:02:37.985Z,14.60
2023-04-22T23:05:10.578Z,13.80
2023-04-22T23:07:39.413Z,13.50
2023-04-22T23:10:09.468Z,15.32
2023-04-22T23:12:39.454Z,13.88
2023-04-22T23:15:09.059Z,15.23
2023-04-22T23:17:38.236Z,14.50
2023-04-22T23:20:09.514Z,15.20
2023-04-22T23:22:40.008Z,14.90
2023-04-22T23:25:10.246Z,14.90
2023-04-22T23:27:42.301Z,15.10
2023-04-22T23:30:11.640Z,14.35
2023-04-22T23:32:41.342Z,14.13
2023-04-22T23:35:13.361Z,13.55
2023-04-22T23:37:44.758Z,14.63
2023-04-22T23:40:14.309Z,15.30
2023-04-22T23:42:44.369Z,14.85
2023-04-22T23:45:13.288Z,15.45
2023-04-22T23:47:42.012Z,15.02
2023-04-22T23:50:11.680Z,14.85
2023-04-22T23:52:41.476Z,15.20
2023-04-22T23:55:11.692Z,14.95
2023-04-22T23:57:41.030Z,13.93
